createdAt,value
2023-07-03T00:00:04.322Z,73.89
2023-07-03T00:01:04.342Z,73.89
2023-07-03T00:02:04.330Z,74.09
2023-07-03T00:03:04.326Z,74.19
2023-07-03T00:04:04.297Z,74.40
2023-07-03T00:05:04.559Z,74.49
2023-07-03T00:06:04.272Z,74.80
2023-07-03T00:07:04.273Z,74.90
2023-07-03T00:08:04.226Z,75.13
2023-07-03T00:09:04.213Z,75.04
2023-07-03T00:10:04.207Z,75.10
2023-07-03T00:11:04.225Z,75.10
2023-07-03T00:12:04.183Z,75.10
2023-07-03T00:13:04.178Z,75.20
2023-07-03T00:14:04.163Z,75.40
2023-07-03T00:15:04.171Z,75.54
2023-07-03T00:16:04.212Z,75.74
2023-07-03T00:17:04.158Z,75.84
2023-07-03T00:18:04.175Z,75.95
2023-07-03T00:19:04.113Z,76.15
2023-07-03T00:20:04.097Z,76.04
2023-07-03T00:21:04.088Z,76.15
2023-07-03T00:22:04.107Z,76.25
2023-07-03T00:23:04.079Z,76.25
2023-07-03T00:24:04.049Z,76.35
2023-07-03T00:25:04.045Z,76.45
2023-07-03T00:26:04.029Z,76.11
2023-07-03T00:27:04.014Z,76.21
2023-07-03T00:28:04.036Z,76.21
2023-07-03T00:29:03.994Z,76.51
2023-07-03T00:30:03.980Z,76.31
2023-07-03T00:31:03.971Z,76.31
2023-07-03T00:32:04.012Z,76.51
2023-07-03T00:33:03.974Z,76.51
2023-07-03T00:34:03.941Z,76.62
2023-07-03T00:35:03.938Z,76.72
2023-07-03T00:36:03.909Z,76.72
2023-07-03T00:37:03.899Z,76.62
2023-07-03T00:38:03.910Z,76.62
2023-07-03T00:39:03.894Z,76.72
2023-07-03T00:40:03.871Z,76.82
2023-07-03T00:41:03.869Z,76.92
2023-07-03T00:42:03.851Z,77.02
2023-07-03T00:43:03.845Z,77.15
2023-07-03T00:44:03.854Z,77.26
2023-07-03T00:45:03.823Z,77.26
2023-07-03T00:46:03.827Z,77.36
2023-07-03T00:47:03.788Z,77.26
2023-07-03T00:48:03.788Z,77.26
2023-07-03T00:49:03.788Z,77.36
2023-07-03T00:50:03.770Z,77.26
2023-07-03T00:51:03.746Z,76.86
2023-07-03T00:52:03.735Z,76.95
2023-07-03T00:53:03.723Z,76.95
2023-07-03T00:54:03.715Z,76.55
2023-07-03T00:55:03.736Z,76.55
2023-07-03T00:56:03.708Z,76.65
2023-07-03T00:57:03.678Z,76.45
2023-07-03T00:58:03.665Z,76.35
2023-07-03T00:59:03.662Z,76.35
2023-07-03T01:00:03.647Z,76.15
2023-07-03T01:01:03.653Z,76.39
2023-07-03T01:02:03.678Z,76.28
2023-07-03T01:03:03.701Z,76.18
2023-07-03T01:04:03.598Z,76.04
2023-07-03T01:05:03.689Z,75.84
2023-07-03T01:06:03.645Z,75.98
2023-07-03T01:07:03.566Z,75.88
2023-07-03T01:08:03.548Z,76.08
2023-07-03T01:09:03.575Z,76.08
2023-07-03T01:10:03.541Z,76.28
2023-07-03T01:11:03.546Z,76.48
2023-07-03T01:12:03.510Z,76.18
2023-07-03T01:13:03.518Z,76.39
2023-07-03T01:14:03.488Z,76.69
2023-07-03T01:15:03.477Z,76.39
2023-07-03T01:16:03.503Z,76.59
2023-07-03T01:17:03.463Z,76.39
2023-07-03T01:18:03.443Z,76.69
2023-07-03T01:19:03.448Z,76.39
2023-07-03T01:20:03.436Z,76.59
2023-07-03T01:21:03.444Z,76.79
2023-07-03T01:22:03.410Z,76.79
2023-07-03T01:23:03.430Z,76.69
2023-07-03T01:24:03.388Z,76.69
2023-07-03T01:25:03.387Z,76.59
2023-07-03T01:26:03.351Z,76.69
2023-07-03T01:27:03.403Z,76.55
2023-07-03T01:28:03.357Z,76.65
2023-07-03T01:29:03.352Z,76.69
2023-07-03T01:30:03.321Z,76.69
2023-07-03T01:31:03.316Z,76.75
2023-07-03T01:32:03.300Z,76.89
2023-07-03T01:33:03.394Z,76.55
2023-07-03T01:34:03.270Z,76.69
2023-07-03T01:35:03.273Z,76.79
2023-07-03T01:36:03.264Z,76.79
2023-07-03T01:37:03.270Z,76.79
2023-07-03T01:38:03.223Z,76.59
2023-07-03T01:39:03.226Z,76.69
2023-07-03T01:40:03.206Z,76.69
2023-07-03T01:41:03.256Z,76.69
2023-07-03T01:42:03.203Z,76.69
2023-07-03T01:43:03.188Z,76.28
2023-07-03T01:44:03.170Z,76.39
2023-07-03T01:45:03.143Z,76.48
2023-07-03T01:46:03.206Z,76.52
2023-07-03T01:47:03.146Z,76.62
2023-07-03T01:48:03.228Z,76.72
2023-07-03T01:49:03.101Z,76.72
2023-07-03T01:50:03.086Z,76.72
2023-07-03T01:51:03.073Z,76.82
2023-07-03T01:52:03.069Z,76.52
2023-07-03T01:53:03.063Z,76.42
2023-07-03T01:54:03.083Z,75.92
2023-07-03T01:55:03.030Z,76.12
2023-07-03T01:56:03.022Z,76.12
2023-07-03T01:57:03.018Z,76.02
2023-07-03T01:58:03.058Z,76.02
2023-07-03T01:59:03.005Z,76.12
2023-07-03T02:00:02.994Z,75.92
2023-07-03T02:01:03.027Z,75.81
2023-07-03T02:02:02.991Z,75.92
2023-07-03T02:03:02.991Z,75.81
2023-07-03T02:04:02.942Z,75.61
2023-07-03T02:05:02.997Z,75.41
2023-07-03T02:06:02.914Z,75.71
2023-07-03T02:07:02.923Z,75.81
2023-07-03T02:08:02.885Z,75.61
2023-07-03T02:09:02.887Z,75.41
2023-07-03T02:10:02.893Z,75.61
2023-07-03T02:11:02.879Z,75.41
2023-07-03T02:12:02.843Z,75.31
2023-07-03T02:13:02.830Z,75.51
2023-07-03T02:14:02.815Z,75.61
2023-07-03T02:15:02.816Z,75.51
2023-07-03T02:16:02.821Z,75.41
2023-07-03T02:17:02.880Z,75.31
2023-07-03T02:18:02.838Z,75.31
2023-07-03T02:19:02.763Z,75.31
2023-07-03T02:20:02.769Z,75.41
2023-07-03T02:21:02.758Z,75.10
2023-07-03T02:22:02.762Z,75.41
2023-07-03T02:23:02.719Z,75.61
2023-07-03T02:24:02.704Z,75.31
2023-07-03T02:25:02.704Z,75.41
2023-07-03T02:26:02.693Z,75.34
2023-07-03T02:27:02.693Z,75.55
2023-07-03T02:28:02.669Z,75.55
2023-07-03T02:29:02.643Z,75.34
2023-07-03T02:30:02.658Z,75.34
2023-07-03T02:31:02.667Z,75.31
2023-07-03T02:32:02.639Z,75.31
2023-07-03T02:33:02.647Z,75.10
2023-07-03T02:34:02.591Z,75.04
2023-07-03T02:35:02.575Z,75.24
2023-07-03T02:36:02.575Z,75.14
2023-07-03T02:37:02.567Z,75.24
2023-07-03T02:38:02.578Z,75.24
2023-07-03T02:39:02.552Z,75.14
2023-07-03T02:40:02.537Z,74.94
2023-07-03T02:41:02.527Z,74.94
2023-07-03T02:42:02.502Z,75.14
2023-07-03T02:43:02.489Z,75.14
2023-07-03T02:44:02.538Z,74.94
2023-07-03T02:45:02.481Z,74.94
2023-07-03T02:46:02.460Z,75.24
2023-07-03T02:47:02.488Z,75.14
2023-07-03T02:48:02.517Z,75.24
2023-07-03T02:49:02.449Z,75.34
2023-07-03T02:50:02.449Z,75.45
2023-07-03T02:51:02.398Z,75.24
2023-07-03T02:52:02.420Z,75.14
2023-07-03T02:53:02.417Z,75.24
2023-07-03T02:54:02.367Z,74.94
2023-07-03T02:55:02.379Z,75.04
2023-07-03T02:56:02.352Z,75.34
2023-07-03T02:57:02.346Z,75.04
2023-07-03T02:58:02.318Z,75.04
2023-07-03T02:59:02.335Z,74.94
2023-07-03T03:00:02.312Z,74.94
2023-07-03T03:01:02.395Z,74.94
2023-07-03T03:02:02.288Z,75.14
2023-07-03T03:03:02.450Z,75.24
2023-07-03T03:04:02.370Z,75.45
2023-07-03T03:05:02.366Z,75.45
2023-07-03T03:06:02.273Z,75.04
2023-07-03T03:07:02.254Z,75.14
2023-07-03T03:08:02.235Z,75.45
2023-07-03T03:09:02.216Z,75.04
2023-07-03T03:10:02.199Z,75.24
2023-07-03T03:11:02.188Z,75.24
2023-07-03T03:12:02.189Z,75.34
2023-07-03T03:13:02.171Z,75.34
2023-07-03T03:14:02.152Z,75.34
2023-07-03T03:15:02.188Z,75.34
2023-07-03T03:16:02.148Z,74.94
2023-07-03T03:17:02.209Z,74.63
2023-07-03T03:18:02.123Z,74.74
2023-07-03T03:19:02.085Z,74.63
2023-07-03T03:20:02.077Z,74.74
2023-07-03T03:21:02.109Z,74.84
2023-07-03T03:22:02.094Z,74.94
2023-07-03T03:23:02.049Z,75.34
2023-07-03T03:24:02.033Z,75.18
2023-07-03T03:25:02.062Z,75.18
2023-07-03T03:26:02.028Z,75.38
2023-07-03T03:27:02.003Z,75.58
2023-07-03T03:28:01.992Z,75.68
2023-07-03T03:29:01.992Z,75.79
2023-07-03T03:30:01.971Z,75.79
2023-07-03T03:31:02.061Z,75.79
2023-07-03T03:32:01.955Z,75.99
2023-07-03T03:33:01.960Z,76.09
2023-07-03T03:34:01.952Z,76.19
2023-07-03T03:35:01.920Z,76.19
2023-07-03T03:36:01.922Z,76.19
2023-07-03T03:37:01.909Z,76.39
2023-07-03T03:38:01.873Z,76.39
2023-07-03T03:39:01.867Z,76.39
2023-07-03T03:40:01.906Z,76.32
2023-07-03T03:41:01.867Z,76.50
2023-07-03T03:42:01.841Z,76.63
2023-07-03T03:43:01.835Z,76.73
2023-07-03T03:44:01.816Z,76.63
2023-07-03T03:45:01.804Z,76.83
2023-07-03T03:46:01.823Z,76.83
2023-07-03T03:47:01.792Z,76.93
2023-07-03T03:48:01.811Z,76.93
2023-07-03T03:49:01.846Z,76.93
2023-07-03T03:50:01.870Z,77.03
2023-07-03T03:51:01.808Z,77.14
2023-07-03T03:52:01.768Z,77.34
2023-07-03T03:53:01.715Z,77.54
2023-07-03T03:54:01.707Z,77.54
2023-07-03T03:55:01.687Z,77.44
2023-07-03T03:56:01.676Z,77.64
2023-07-03T03:57:01.667Z,77.64
2023-07-03T03:58:01.682Z,77.64
2023-07-03T03:59:01.645Z,77.75
2023-07-03T04:00:01.659Z,77.75
2023-07-03T04:01:01.614Z,77.95
2023-07-03T04:02:01.670Z,77.84
2023-07-03T04:03:01.631Z,78.05
2023-07-03T04:04:01.640Z,78.19
2023-07-03T04:05:01.717Z,78.19
2023-07-03T04:06:01.572Z,78.19
2023-07-03T04:07:01.554Z,78.39
2023-07-03T04:08:01.545Z,78.28
2023-07-03T04:09:01.528Z,78.28
2023-07-03T04:10:01.547Z,78.39
2023-07-03T04:11:01.562Z,78.39
2023-07-03T04:12:01.494Z,78.59
2023-07-03T04:13:01.496Z,78.39
2023-07-03T04:14:01.559Z,78.69
2023-07-03T04:15:01.598Z,78.79
2023-07-03T04:16:02.295Z,78.59
2023-07-03T04:17:01.527Z,78.79
2023-07-03T04:18:01.549Z,78.59
2023-07-03T04:19:01.462Z,78.79
2023-07-03T04:20:01.432Z,78.79
2023-07-03T04:21:01.471Z,78.39
2023-07-03T04:22:01.446Z,78.75
2023-07-03T04:23:01.458Z,78.66
2023-07-03T04:24:01.647Z,78.55
2023-07-03T04:25:01.499Z,78.55
2023-07-03T04:26:01.404Z,78.66
2023-07-03T04:27:01.436Z,78.66
2023-07-03T04:28:01.408Z,78.66
2023-07-03T04:29:01.532Z,78.75
2023-07-03T04:30:01.451Z,78.59
2023-07-03T04:31:01.351Z,78.89
2023-07-03T04:32:01.421Z,78.96
2023-07-03T04:33:01.412Z,79.16
2023-07-03T04:34:01.310Z,79.20
2023-07-03T04:35:01.247Z,79.16
2023-07-03T04:36:01.467Z,79.26
2023-07-03T04:37:01.291Z,79.26
2023-07-03T04:38:01.267Z,79.16
2023-07-03T04:39:01.259Z,79.36
2023-07-03T04:40:01.254Z,79.06
2023-07-03T04:41:01.209Z,79.36
2023-07-03T04:42:01.405Z,79.26
2023-07-03T04:43:01.270Z,79.16
2023-07-03T04:44:01.225Z,79.16
2023-07-03T04:45:01.288Z,79.16
2023-07-03T04:46:01.405Z,78.96
2023-07-03T04:47:01.674Z,78.86
2023-07-03T04:48:01.129Z,78.82
2023-07-03T04:49:01.656Z,78.92
2023-07-03T04:50:01.181Z,78.62
2023-07-03T04:51:01.156Z,79.22
2023-07-03T04:52:01.184Z,78.72
2023-07-03T04:53:01.049Z,78.82
2023-07-03T04:54:01.065Z,78.72
2023-07-03T04:55:01.172Z,78.72
2023-07-03T04:56:01.037Z,79.02
2023-07-03T04:57:01.046Z,78.62
2023-07-03T04:58:01.122Z,78.72
2023-07-03T04:59:00.974Z,78.72
2023-07-03T05:00:01.096Z,78.82
2023-07-03T05:01:01.025Z,78.82
2023-07-03T05:02:01.116Z,78.62
2023-07-03T05:03:01.069Z,78.82
2023-07-03T05:04:01.055Z,79.22
2023-07-03T05:05:01.131Z,79.02
2023-07-03T05:06:01.073Z,79.02
2023-07-03T05:07:00.909Z,79.43
2023-07-03T05:08:00.930Z,79.53
2023-07-03T05:09:00.921Z,79.63
2023-07-03T05:10:00.889Z,79.53
2023-07-03T05:11:00.886Z,79.43
2023-07-03T05:12:00.873Z,79.63
2023-07-03T05:13:00.842Z,79.63
2023-07-03T05:14:00.959Z,79.73
2023-07-03T05:15:00.804Z,79.83
2023-07-03T05:16:00.901Z,79.83
2023-07-03T05:17:00.776Z,79.59
2023-07-03T05:18:00.958Z,79.69
2023-07-03T05:19:00.907Z,79.69
2023-07-03T05:20:00.938Z,79.49
2023-07-03T05:21:00.786Z,79.59
2023-07-03T05:22:00.745Z,79.39
2023-07-03T05:23:00.831Z,79.49
2023-07-03T05:24:00.767Z,79.35
2023-07-03T05:25:00.715Z,79.35
2023-07-03T05:26:00.682Z,79.35
2023-07-03T05:27:00.738Z,79.86
2023-07-03T05:28:00.672Z,79.55
2023-07-03T05:29:00.683Z,79.46
2023-07-03T05:30:00.765Z,79.35
2023-07-03T05:31:00.656Z,79.46
2023-07-03T05:32:00.689Z,79.46
2023-07-03T05:33:00.653Z,79.46
2023-07-03T05:34:00.590Z,79.62
2023-07-03T05:35:00.615Z,79.41
2023-07-03T05:36:00.628Z,79.32
2023-07-03T05:37:00.614Z,79.11
2023-07-03T05:38:00.604Z,79.41
2023-07-03T05:39:00.553Z,79.21
2023-07-03T05:40:00.528Z,79.21
2023-07-03T05:41:00.514Z,79.32
2023-07-03T05:42:00.529Z,79.28
2023-07-03T05:43:00.497Z,79.17
2023-07-03T05:44:00.469Z,79.28
2023-07-03T05:45:00.465Z,79.58
2023-07-03T05:46:00.472Z,79.99
2023-07-03T05:47:00.480Z,79.82
2023-07-03T05:48:00.441Z,80.12
2023-07-03T05:49:00.423Z,80.39
2023-07-03T05:50:00.437Z,79.82
2023-07-03T05:51:00.415Z,80.59
2023-07-03T05:52:00.417Z,79.79
2023-07-03T05:53:00.417Z,80.02
2023-07-03T05:54:00.367Z,80.12
2023-07-03T05:55:00.363Z,80.12
2023-07-03T05:56:00.462Z,80.53
2023-07-03T05:57:00.335Z,81.03
2023-07-03T05:58:00.331Z,81.34
2023-07-03T05:59:00.327Z,80.93
2023-07-03T06:00:00.318Z,80.93
2023-07-03T06:01:00.452Z,80.63
2023-07-03T06:02:00.274Z,80.83
2023-07-03T06:03:00.616Z,80.63
2023-07-03T06:04:00.321Z,80.32
2023-07-03T06:05:00.394Z,80.63
2023-07-03T06:06:00.250Z,80.43
2023-07-03T06:07:00.213Z,80.43
2023-07-03T06:08:00.221Z,80.73
2023-07-03T06:09:00.218Z,80.63
2023-07-03T06:10:00.222Z,80.49
2023-07-03T06:11:00.212Z,80.29
2023-07-03T06:12:00.201Z,80.19
2023-07-03T06:13:00.175Z,80.05
2023-07-03T06:14:00.141Z,80.05
2023-07-03T06:15:00.185Z,80.19
2023-07-03T06:16:00.116Z,80.05
2023-07-03T06:17:00.365Z,79.74
2023-07-03T06:18:00.152Z,79.85
2023-07-03T06:19:00.138Z,79.85
2023-07-03T06:20:00.119Z,79.44
2023-07-03T06:21:00.093Z,79.94
2023-07-03T06:22:00.104Z,80.01
2023-07-03T06:23:00.115Z,79.71
2023-07-03T06:24:01.713Z,79.91
2023-07-03T06:25:00.022Z,79.91
2023-07-03T06:26:00.062Z,79.41
2023-07-03T06:27:00.040Z,79.10
2023-07-03T06:28:00.087Z,79.10
2023-07-03T06:29:00.086Z,79.36
2023-07-03T06:29:59.975Z,78.96
2023-07-03T06:31:00.061Z,78.96
2023-07-03T06:31:59.960Z,78.96
2023-07-03T06:33:00.022Z,79.36
2023-07-03T06:33:59.907Z,79.00
2023-07-03T06:35:00.683Z,78.96
2023-07-03T06:35:59.928Z,79.06
2023-07-03T06:36:59.905Z,78.96
2023-07-03T06:37:59.876Z,78.46
2023-07-03T06:38:59.853Z,78.36
2023-07-03T06:39:59.847Z,78.42
2023-07-03T06:40:59.861Z,77.62
2023-07-03T06:41:59.840Z,77.88
2023-07-03T06:42:59.842Z,77.98
2023-07-03T06:43:59.804Z,78.08
2023-07-03T06:44:59.786Z,77.31
2023-07-03T06:45:59.802Z,77.82
2023-07-03T06:46:59.840Z,77.58
2023-07-03T06:47:59.816Z,77.72
2023-07-03T06:48:59.746Z,78.19
2023-07-03T06:49:59.744Z,77.72
2023-07-03T06:50:59.733Z,78.02
2023-07-03T06:51:59.711Z,78.16
2023-07-03T06:52:59.702Z,78.66
2023-07-03T06:53:59.723Z,78.86
2023-07-03T06:54:59.677Z,78.12
2023-07-03T06:55:59.668Z,78.12
2023-07-03T06:56:59.650Z,77.72
2023-07-03T06:57:59.664Z,77.51
2023-07-03T06:58:59.664Z,77.78
2023-07-03T06:59:59.642Z,77.48
2023-07-03T07:00:59.610Z,76.34
2023-07-03T07:01:59.680Z,76.84
2023-07-03T07:02:59.667Z,76.57
2023-07-03T07:04:00.607Z,76.97
2023-07-03T07:05:02.518Z,76.84
2023-07-03T07:05:59.848Z,76.64
2023-07-03T07:06:59.545Z,76.74
2023-07-03T07:07:59.529Z,77.14
2023-07-03T07:08:59.545Z,76.54
2023-07-03T07:09:59.522Z,76.64
2023-07-03T07:10:59.514Z,76.70
2023-07-03T07:11:59.500Z,76.20
2023-07-03T07:12:59.478Z,76.10
2023-07-03T07:13:59.504Z,76.10
2023-07-03T07:14:59.455Z,76.10
2023-07-03T07:15:59.446Z,76.50
2023-07-03T07:16:59.500Z,76.70
2023-07-03T07:17:59.507Z,76.40
2023-07-03T07:18:59.414Z,76.80
2023-07-03T07:19:59.419Z,75.99
2023-07-03T07:20:59.432Z,76.10
2023-07-03T07:21:59.384Z,76.20
2023-07-03T07:22:59.373Z,75.96
2023-07-03T07:23:59.357Z,75.42
2023-07-03T07:24:59.575Z,74.98
2023-07-03T07:25:59.332Z,75.09
2023-07-03T07:26:59.345Z,74.48
2023-07-03T07:27:59.320Z,73.58
2023-07-03T07:28:59.303Z,73.38
2023-07-03T07:29:59.297Z,74.32
2023-07-03T07:30:59.297Z,74.38
2023-07-03T07:31:59.269Z,74.01
2023-07-03T07:32:59.334Z,73.71
2023-07-03T07:33:59.256Z,73.85
2023-07-03T07:34:59.233Z,73.65
2023-07-03T07:35:59.223Z,73.95
2023-07-03T07:36:59.266Z,74.05
2023-07-03T07:37:59.201Z,73.81
2023-07-03T07:38:59.195Z,73.44
2023-07-03T07:39:59.201Z,73.85
2023-07-03T07:40:59.174Z,74.05
2023-07-03T07:41:59.158Z,74.05
2023-07-03T07:42:59.177Z,74.05
2023-07-03T07:43:59.157Z,74.35
2023-07-03T07:44:59.134Z,74.85
2023-07-03T07:45:59.150Z,74.32
2023-07-03T07:46:59.121Z,74.72
2023-07-03T07:47:59.113Z,74.21
2023-07-03T07:48:59.159Z,74.11
2023-07-03T07:49:59.071Z,73.51
2023-07-03T07:50:59.065Z,73.58
2023-07-03T07:51:59.047Z,72.57
2023-07-03T07:52:59.086Z,73.00
2023-07-03T07:53:59.051Z,73.07
2023-07-03T07:54:59.027Z,73.47
2023-07-03T07:55:59.041Z,73.34
2023-07-03T07:56:59.009Z,73.14
2023-07-03T07:57:58.989Z,72.64
2023-07-03T07:58:58.974Z,72.74
2023-07-03T07:59:58.963Z,72.74
2023-07-03T08:00:59.155Z,72.74
2023-07-03T08:01:59.015Z,72.44
2023-07-03T08:02:58.972Z,72.94
2023-07-03T08:03:58.976Z,72.80
2023-07-03T08:04:59.018Z,73.10
2023-07-03T08:05:58.903Z,72.90
2023-07-03T08:06:58.875Z,72.44
2023-07-03T08:07:58.884Z,72.64
2023-07-03T08:08:58.891Z,72.13
2023-07-03T08:09:58.867Z,71.63
2023-07-03T08:10:58.833Z,72.33
2023-07-03T08:11:58.844Z,72.64
2023-07-03T08:12:58.828Z,72.44
2023-07-03T08:13:58.837Z,72.84
2023-07-03T08:14:58.799Z,72.33
2023-07-03T08:15:58.797Z,73.18
2023-07-03T08:16:58.796Z,73.31
2023-07-03T08:17:58.789Z,73.58
2023-07-03T08:18:58.771Z,73.47
2023-07-03T08:19:58.762Z,73.27
2023-07-03T08:20:58.732Z,73.38
2023-07-03T08:21:58.716Z,73.27
2023-07-03T08:22:58.698Z,73.64
2023-07-03T08:23:58.702Z,73.64
2023-07-03T08:24:58.714Z,73.47
2023-07-03T08:25:58.671Z,73.68
2023-07-03T08:26:58.661Z,74.38
2023-07-03T08:27:58.650Z,74.58
2023-07-03T08:28:58.641Z,74.44
2023-07-03T08:29:58.625Z,73.64
2023-07-03T08:30:58.673Z,72.60
2023-07-03T08:31:58.655Z,72.53
2023-07-03T08:32:58.658Z,73.14
2023-07-03T08:33:58.619Z,72.71
2023-07-03T08:37:58.568Z,72.60
2023-07-03T08:38:58.536Z,71.90
2023-07-03T08:39:58.515Z,71.30
2023-07-03T08:40:58.502Z,72.03
2023-07-03T08:41:58.525Z,71.13
2023-07-03T08:42:58.488Z,71.60
2023-07-03T08:43:58.488Z,71.70
2023-07-03T08:44:59.350Z,72.00
2023-07-03T08:45:58.464Z,71.77
2023-07-03T08:47:10.720Z,71.16
2023-07-03T08:47:58.461Z,70.96
2023-07-03T08:48:58.410Z,71.56
2023-07-03T08:49:58.447Z,70.66
2023-07-03T08:50:58.512Z,71.06
2023-07-03T08:51:58.379Z,70.56
2023-07-03T08:52:58.401Z,70.93
2023-07-03T08:53:58.361Z,69.92
2023-07-03T08:54:58.340Z,70.19
2023-07-03T08:55:58.332Z,69.76
2023-07-03T08:56:58.320Z,68.76
2023-07-03T08:57:58.328Z,69.39
2023-07-03T08:58:58.324Z,68.89
2023-07-03T08:59:58.294Z,68.39
2023-07-03T09:00:59.073Z,67.88
2023-07-03T09:01:58.283Z,67.38
2023-07-03T09:02:58.388Z,67.38
2023-07-03T09:03:58.467Z,67.79
2023-07-03T09:04:58.274Z,68.39
2023-07-03T09:05:58.227Z,67.65
2023-07-03T09:06:58.227Z,66.05
2023-07-03T09:07:58.204Z,66.75
2023-07-03T09:08:58.188Z,67.25
2023-07-03T09:09:58.201Z,66.65
2023-07-03T09:10:58.165Z,67.79
2023-07-03T09:11:58.153Z,66.88
2023-07-03T09:12:58.156Z,66.38
2023-07-03T09:13:58.133Z,67.72
2023-07-03T09:14:58.124Z,67.58
2023-07-03T09:15:58.134Z,66.88
2023-07-03T09:16:58.118Z,67.18
2023-07-03T09:17:58.114Z,65.98
2023-07-03T09:18:58.075Z,66.18
2023-07-03T09:19:58.109Z,64.78
2023-07-03T09:20:58.859Z,64.48
2023-07-03T09:21:58.074Z,64.07
2023-07-03T09:22:58.043Z,64.07
2023-07-03T09:23:58.027Z,64.68
2023-07-03T09:24:58.009Z,64.54
2023-07-03T09:26:02.322Z,64.54
2023-07-03T09:26:58.563Z,64.42
2023-07-03T09:27:58.029Z,63.71
2023-07-03T09:28:57.960Z,63.92
2023-07-03T09:29:57.960Z,64.25
2023-07-03T09:30:58.214Z,63.45
2023-07-03T09:31:58.534Z,63.57
2023-07-03T09:32:57.958Z,64.58
2023-07-03T09:33:57.909Z,64.01
2023-07-03T09:34:57.896Z,63.23
2023-07-03T09:35:58.896Z,63.64
2023-07-03T09:36:58.576Z,63.96
2023-07-03T09:37:57.882Z,64.77
2023-07-03T09:38:57.902Z,65.41
2023-07-03T09:39:57.934Z,66.00
2023-07-03T09:40:59.887Z,66.51
2023-07-03T09:41:58.063Z,67.21
2023-07-03T09:42:57.845Z,67.51
2023-07-03T09:43:57.822Z,66.91
2023-07-03T09:44:57.800Z,67.21
2023-07-03T09:45:57.782Z,66.91
2023-07-03T09:46:57.850Z,66.94
2023-07-03T09:47:57.842Z,66.84
2023-07-03T09:48:58.143Z,66.74
2023-07-03T09:49:57.835Z,67.65
2023-07-03T09:51:07.371Z,67.11
2023-07-03T09:51:57.749Z,66.03
2023-07-03T09:53:07.532Z,66.34
2023-07-03T09:53:57.696Z,65.94
2023-07-03T09:54:57.680Z,65.80
2023-07-03T09:55:57.681Z,66.00
2023-07-03T09:56:57.719Z,65.37
2023-07-03T09:57:57.653Z,64.37
2023-07-03T09:58:57.656Z,63.76
2023-07-03T09:59:57.635Z,63.33
2023-07-03T10:00:58.095Z,63.40
2023-07-03T10:03:58.085Z,62.24
2023-07-03T10:06:57.737Z,60.21
2023-07-03T10:07:57.815Z,60.11
2023-07-03T10:11:57.577Z,61.80
2023-07-03T10:12:57.577Z,62.60
2023-07-03T10:13:57.471Z,62.93
2023-07-03T10:14:57.465Z,63.73
2023-07-03T10:15:57.443Z,64.17
2023-07-03T10:16:57.479Z,64.27
2023-07-03T10:17:57.458Z,64.97
2023-07-03T10:18:57.421Z,65.27
2023-07-03T10:19:57.400Z,64.97
2023-07-03T10:20:57.393Z,64.87
2023-07-03T10:21:57.374Z,64.17
2023-07-03T10:22:57.394Z,64.14
2023-07-03T10:23:57.350Z,64.54
2023-07-03T10:24:57.352Z,63.33
2023-07-03T10:25:57.331Z,63.64
2023-07-03T10:26:57.338Z,63.64
2023-07-03T10:27:57.342Z,64.27
2023-07-03T10:28:57.345Z,64.07
2023-07-03T10:29:57.286Z,64.17
2023-07-03T10:30:57.287Z,64.77
2023-07-03T10:31:57.345Z,64.87
2023-07-03T10:32:57.273Z,64.17
2023-07-03T10:33:57.263Z,63.67
2023-07-03T10:34:57.248Z,63.56
2023-07-03T10:35:57.232Z,63.76
2023-07-03T10:36:57.216Z,63.73
2023-07-03T10:37:57.199Z,63.43
2023-07-03T10:38:57.219Z,63.93
2023-07-03T10:39:57.179Z,64.43
2023-07-03T10:40:57.175Z,64.94
2023-07-03T10:41:57.160Z,65.34
2023-07-03T10:42:57.143Z,63.43
2023-07-03T10:43:57.156Z,62.13
2023-07-03T10:44:57.122Z,61.83
2023-07-03T10:45:57.123Z,62.33
2023-07-03T10:46:57.100Z,61.52
2023-07-03T10:47:57.215Z,62.13
2023-07-03T10:48:57.113Z,61.83
2023-07-03T10:49:57.066Z,61.02
2023-07-03T10:50:57.082Z,61.19
2023-07-03T10:51:57.090Z,61.50
2023-07-03T10:52:57.036Z,61.57
2023-07-03T10:53:57.024Z,61.67
2023-07-03T10:54:57.021Z,60.94
2023-07-03T10:55:57.005Z,60.84
2023-07-03T10:56:57.010Z,60.33
2023-07-03T10:57:56.978Z,60.31
2023-07-03T10:58:56.981Z,60.31
2023-07-03T10:59:56.971Z,59.70
2023-07-03T11:00:56.981Z,59.68
2023-07-03T11:01:56.953Z,59.58
2023-07-03T11:02:56.959Z,58.95
2023-07-03T11:04:15.931Z,59.58
2023-07-03T11:04:56.928Z,59.25
2023-07-03T11:05:56.908Z,60.25
2023-07-03T11:07:02.934Z,59.55
2023-07-03T11:07:56.877Z,59.25
2023-07-03T11:08:56.874Z,59.68
2023-07-03T11:09:56.854Z,59.68
2023-07-03T11:10:56.837Z,59.65
2023-07-03T11:11:56.851Z,59.35
2023-07-03T11:12:56.820Z,60.41
2023-07-03T11:13:56.910Z,61.51
2023-07-03T11:14:56.791Z,61.81
2023-07-03T11:15:56.812Z,61.44
2023-07-03T11:16:56.797Z,62.11
2023-07-03T11:19:56.745Z,62.44
2023-07-03T11:22:56.736Z,63.24
2023-07-03T11:23:57.605Z,63.84
2023-07-03T11:24:56.695Z,64.62
2023-07-03T11:27:56.647Z,64.61
2023-07-03T11:28:56.661Z,64.71
2023-07-03T11:29:56.646Z,64.67
2023-07-03T11:30:56.663Z,65.67
2023-07-03T11:31:56.645Z,66.20
2023-07-03T11:32:56.614Z,66.71
2023-07-03T11:35:56.594Z,67.51
2023-07-03T11:37:03.223Z,66.67
2023-07-03T11:39:56.562Z,65.97
2023-07-03T11:40:56.713Z,66.05
2023-07-03T11:43:56.478Z,65.28
2023-07-03T11:44:56.490Z,64.62
2023-07-03T11:45:56.470Z,60.74
2023-07-03T11:46:56.555Z,58.55
2023-07-03T11:47:56.473Z,57.35
2023-07-03T11:48:56.425Z,55.05
2023-07-03T11:49:56.406Z,53.96
2023-07-03T11:50:56.410Z,53.86
2023-07-03T11:51:56.408Z,52.72
2023-07-03T11:52:56.374Z,53.08
2023-07-03T11:53:56.364Z,52.39
2023-07-03T11:54:56.354Z,53.16
2023-07-03T11:55:56.343Z,51.82
2023-07-03T11:56:56.374Z,51.45
2023-07-03T11:58:14.285Z,51.97
2023-07-03T11:58:58.671Z,51.05
2023-07-03T11:59:56.301Z,51.54
2023-07-03T12:00:56.383Z,50.34
2023-07-03T12:01:56.306Z,50.13
2023-07-03T12:02:56.360Z,50.63
2023-07-03T12:03:56.421Z,50.09
2023-07-03T12:04:56.244Z,51.12
2023-07-03T12:05:56.245Z,52.99
2023-07-03T12:06:56.260Z,52.74
2023-07-03T12:07:56.244Z,51.84
2023-07-03T12:08:56.215Z,53.36
2023-07-03T12:09:56.195Z,54.83
2023-07-03T12:10:57.098Z,55.80
2023-07-03T12:11:56.169Z,57.46
2023-07-03T12:12:56.217Z,58.71
2023-07-03T12:13:56.387Z,59.56
2023-07-03T12:14:56.192Z,61.52
2023-07-03T12:15:56.140Z,62.48
2023-07-03T12:16:56.165Z,63.39
2023-07-03T12:17:56.163Z,63.58
2023-07-03T12:18:56.100Z,63.68
2023-07-03T12:19:56.086Z,63.39
2023-07-03T12:20:56.137Z,63.85
2023-07-03T12:21:56.078Z,63.35
2023-07-03T12:22:56.083Z,60.83
2023-07-03T12:23:56.044Z,59.74
2023-07-03T12:24:56.038Z,60.11
2023-07-03T12:25:56.019Z,60.24
2023-07-03T12:26:56.015Z,60.93
2023-07-03T12:27:56.021Z,61.79
2023-07-03T12:28:55.994Z,62.42
2023-07-03T12:29:55.989Z,63.02
2023-07-03T12:30:56.001Z,62.95
2023-07-03T12:31:55.949Z,60.85
2023-07-03T12:32:55.974Z,60.95
2023-07-03T12:33:55.935Z,61.18
2023-07-03T12:34:55.935Z,61.15
2023-07-03T12:35:55.912Z,60.55
2023-07-03T12:37:02.092Z,59.62
2023-07-03T12:37:55.904Z,58.80
2023-07-03T12:38:55.875Z,56.34
2023-07-03T12:39:55.866Z,56.87
2023-07-03T12:40:55.856Z,57.76
2023-07-03T12:41:55.836Z,57.46
2023-07-03T12:42:55.861Z,58.06
2023-07-03T12:44:07.439Z,57.67
2023-07-03T12:44:55.807Z,57.17
2023-07-03T12:45:55.826Z,57.76
2023-07-03T12:46:55.843Z,56.99
2023-07-03T12:47:55.842Z,57.19
2023-07-03T12:48:55.767Z,56.24
2023-07-03T12:49:55.747Z,55.49
2023-07-03T12:50:55.775Z,56.16
2023-07-03T12:51:55.756Z,53.69
2023-07-03T12:52:55.722Z,53.19
2023-07-03T12:53:55.723Z,50.81
2023-07-03T12:55:09.440Z,49.29
2023-07-03T12:55:55.691Z,48.67
2023-07-03T12:56:55.709Z,48.53
2023-07-03T12:57:55.658Z,46.15
2023-07-03T12:58:55.670Z,46.20
2023-07-03T12:59:55.665Z,46.55
2023-07-03T13:00:55.717Z,46.93
2023-07-03T13:01:55.617Z,49.31
2023-07-03T13:02:55.667Z,51.54
2023-07-03T13:03:55.597Z,51.87
2023-07-03T13:04:55.680Z,52.62
2023-07-03T13:05:56.060Z,52.81
2023-07-03T13:06:55.570Z,52.92
2023-07-03T13:07:55.551Z,52.32
2023-07-03T13:08:55.548Z,52.34
2023-07-03T13:09:55.560Z,53.34
2023-07-03T13:10:57.417Z,53.02
2023-07-03T13:11:55.508Z,52.72
2023-07-03T13:12:55.491Z,53.71
2023-07-03T13:13:55.520Z,53.11